createdAt,value
2022-12-23T00:02:00.742Z,67.20
2022-12-23T00:05:05.128Z,96.83
2022-12-23T00:08:09.150Z,58.73
2022-12-23T00:11:18.112Z,47.63
2022-12-23T00:14:41.115Z,67.07
2022-12-23T00:17:45.828Z,45.63
2022-12-23T00:20:48.993Z,52.30
2022-12-23T00:23:52.820Z,41.17
2022-12-23T00:26:57.350Z,52.20
2022-12-23T00:30:00.492Z,48.03
2022-12-23T00:33:03.646Z,44.33
2022-12-23T00:36:14.074Z,47.40
2022-12-23T00:39:34.676Z,41.37
2022-12-23T00:42:57.212Z,32.93
2022-12-23T00:46:00.429Z,31.60
2022-12-23T00:49:21.220Z,32.27
2022-12-23T00:52:24.386Z,33.83
2022-12-23T00:55:27.829Z,32.23
2022-12-23T00:58:33.051Z,34.37
2022-12-23T01:01:53.825Z,31.60
2022-12-23T01:05:14.496Z,34.47
2022-12-23T01:08:17.754Z,35.20
2022-12-23T01:11:20.924Z,31.40
2022-12-23T01:14:26.055Z,28.57
2022-12-23T01:17:29.269Z,29.10
2022-12-23T01:20:32.453Z,25.40
2022-12-23T01:23:36.038Z,29.07
2022-12-23T01:26:39.266Z,26.43
2022-12-23T01:29:43.814Z,26.40
2022-12-23T01:32:46.986Z,25.47
2022-12-23T01:35:50.110Z,23.03
2022-12-23T01:38:53.388Z,22.37
2022-12-23T01:42:13.912Z,24.90
2022-12-23T01:45:22.063Z,20.00
2022-12-23T01:48:28.436Z,20.33
2022-12-23T01:51:32.322Z,22.27
2022-12-23T01:54:37.210Z,20.90
2022-12-23T01:57:42.885Z,20.03
2022-12-23T02:01:04.934Z,21.27
2022-12-23T02:04:11.085Z,21.30
2022-12-23T02:07:32.623Z,21.10
2022-12-23T02:10:46.924Z,20.97
2022-12-23T02:14:14.309Z,20.83
2022-12-23T02:17:25.927Z,22.80
2022-12-23T02:21:05.162Z,20.30
2022-12-23T02:24:43.641Z,20.17
2022-12-23T02:28:04.666Z,18.67
2022-12-23T02:31:15.273Z,19.67
2022-12-23T02:34:21.961Z,22.07
2022-12-23T02:37:33.770Z,18.30
2022-12-23T02:40:43.549Z,22.70
2022-12-23T02:43:51.299Z,18.57
2022-12-23T02:46:59.472Z,21.87
2022-12-23T02:50:08.243Z,18.07
2022-12-23T02:53:17.916Z,18.93
2022-12-23T02:56:22.804Z,16.93
2022-12-23T02:59:28.808Z,15.50
2022-12-23T03:02:35.544Z,15.70
2022-12-23T03:05:42.055Z,17.20
2022-12-23T03:08:46.231Z,17.93
2022-12-23T03:11:55.302Z,15.13
2022-12-23T03:15:17.414Z,18.17
2022-12-23T03:18:30.086Z,17.70
2022-12-23T03:21:39.292Z,20.60
2022-12-23T03:24:48.424Z,21.07
2022-12-23T03:27:56.785Z,14.53
2022-12-23T03:31:03.466Z,15.90
2022-12-23T03:34:12.715Z,15.77
2022-12-23T03:37:20.082Z,16.87
2022-12-23T03:40:26.393Z,16.27
2022-12-23T03:43:34.449Z,19.10
2022-12-23T03:46:42.026Z,14.70
2022-12-23T03:49:50.367Z,14.20
2022-12-23T03:52:58.472Z,14.17
2022-12-23T03:56:06.100Z,15.43
2022-12-23T03:59:14.082Z,14.20
2022-12-23T04:02:24.106Z,16.83
2022-12-23T04:05:31.915Z,16.23
2022-12-23T04:08:38.117Z,15.07
2022-12-23T04:11:41.968Z,15.87
2022-12-23T04:14:49.284Z,17.23
2022-12-23T04:17:53.632Z,17.43
2022-12-23T04:20:58.209Z,14.70
2022-12-23T04:24:01.389Z,14.50
2022-12-23T04:27:04.639Z,13.63
2022-12-23T04:30:09.838Z,13.80
2022-12-23T04:33:13.488Z,15.03
2022-12-23T04:36:18.045Z,13.07
2022-12-23T04:39:21.197Z,13.17
2022-12-23T04:42:24.779Z,13.97
2022-12-23T04:45:27.960Z,13.53
2022-12-23T04:48:31.213Z,13.80
2022-12-23T04:51:35.791Z,20.70
2022-12-23T04:54:45.453Z,24.37
2022-12-23T04:57:49.393Z,26.37
2022-12-23T05:01:02.626Z,25.67
2022-12-23T05:04:06.076Z,24.60
2022-12-23T05:07:10.651Z,25.33
2022-12-23T05:10:13.777Z,57.47
2022-12-23T05:13:16.933Z,43.53
2022-12-23T05:16:20.185Z,37.37
2022-12-23T05:19:23.426Z,31.03
2022-12-23T05:22:28.016Z,30.03
2022-12-23T05:25:31.145Z,37.87
2022-12-23T05:28:34.506Z,39.90
2022-12-23T05:31:38.040Z,33.37
2022-12-23T05:34:41.229Z,30.80
2022-12-23T05:37:45.763Z,30.50
2022-12-23T05:40:49.008Z,31.30
2022-12-23T05:43:52.151Z,31.80
2022-12-23T05:46:55.280Z,28.13
2022-12-23T05:49:58.478Z,26.40
2022-12-23T05:53:03.006Z,28.57
2022-12-23T05:56:07.433Z,30.63
2022-12-23T05:59:11.185Z,28.13
2022-12-23T06:02:14.419Z,24.40
2022-12-23T06:05:17.651Z,27.33
2022-12-23T06:08:22.163Z,25.57
2022-12-23T06:11:25.313Z,24.70
2022-12-23T06:14:29.325Z,23.23
2022-12-23T06:17:32.719Z,21.40
2022-12-23T06:20:35.936Z,21.73
2022-12-23T06:23:40.419Z,23.70
2022-12-23T06:26:43.866Z,23.90
2022-12-23T06:29:47.036Z,23.17
2022-12-23T06:32:50.462Z,28.97
2022-12-23T06:35:53.659Z,28.17
2022-12-23T06:38:58.171Z,23.33
2022-12-23T06:42:01.359Z,27.13
2022-12-23T06:45:04.830Z,24.70
2022-12-23T06:48:08.437Z,27.90
2022-12-23T06:51:12.837Z,27.77
2022-12-23T06:54:17.524Z,28.20
2022-12-23T06:57:20.674Z,25.80
2022-12-23T07:00:24.157Z,22.40
2022-12-23T07:03:27.320Z,25.07
2022-12-23T07:06:30.574Z,24.53
2022-12-23T07:09:35.051Z,24.13
2022-12-23T07:12:38.617Z,23.73
2022-12-23T07:15:41.749Z,23.60
2022-12-23T07:18:45.120Z,24.73
2022-12-23T07:21:48.246Z,24.37
2022-12-23T07:24:52.773Z,24.00
2022-12-23T07:27:56.316Z,22.57
2022-12-23T07:30:59.577Z,26.60
2022-12-23T07:34:02.726Z,23.40
2022-12-23T07:37:05.875Z,26.00
2022-12-23T07:40:11.670Z,28.80
2022-12-23T07:43:14.903Z,25.83
2022-12-23T07:46:18.144Z,27.77
2022-12-23T07:49:21.313Z,24.30
2022-12-23T07:52:24.490Z,24.40
2022-12-23T07:55:29.027Z,28.43
2022-12-23T07:58:32.231Z,24.37
2022-12-23T08:01:35.632Z,25.23
2022-12-23T08:04:44.224Z,24.37
2022-12-23T08:07:50.155Z,27.87
2022-12-23T08:10:58.476Z,24.97
2022-12-23T08:14:01.737Z,25.60
2022-12-23T08:17:04.975Z,26.73
2022-12-23T08:20:09.433Z,26.33
2022-12-23T08:23:12.565Z,24.30
2022-12-23T08:26:18.690Z,26.70
2022-12-23T08:29:21.926Z,24.37
2022-12-23T08:32:28.160Z,26.40
2022-12-23T08:35:31.739Z,28.87
2022-12-23T08:38:35.895Z,25.43
2022-12-23T08:41:42.121Z,23.33
2022-12-23T08:44:45.344Z,30.20
2022-12-23T08:47:48.528Z,24.53
2022-12-23T08:50:51.712Z,25.30
2022-12-23T08:54:00.201Z,25.03
2022-12-23T08:57:05.700Z,23.50
2022-12-23T09:00:10.317Z,26.87
2022-12-23T09:03:13.729Z,25.90
2022-12-23T09:06:23.202Z,28.80
2022-12-23T09:09:30.010Z,28.30
2022-12-23T09:12:34.568Z,22.10
2022-12-23T09:15:41.155Z,22.60
2022-12-23T09:18:44.384Z,21.43
2022-12-23T09:21:47.587Z,20.90
2022-12-23T09:24:50.834Z,25.13
2022-12-23T09:27:55.415Z,19.60
2022-12-23T09:30:58.646Z,19.53
2022-12-23T09:34:01.866Z,23.43
2022-12-23T09:37:05.392Z,20.40
2022-12-23T09:40:12.142Z,24.33
2022-12-23T09:43:29.962Z,24.83
2022-12-23T09:46:35.275Z,25.50
2022-12-23T09:49:45.908Z,27.50
2022-12-23T09:52:57.137Z,24.27
2022-12-23T09:56:08.915Z,26.13
2022-12-23T09:59:23.610Z,25.40
2022-12-23T10:02:40.219Z,29.97
2022-12-23T10:05:56.296Z,35.13
2022-12-23T10:09:02.610Z,26.77
2022-12-23T10:12:23.643Z,30.90
2022-12-23T10:15:37.517Z,29.77
2022-12-23T10:18:48.907Z,31.53
2022-12-23T10:21:54.556Z,26.33
2022-12-23T10:24:59.863Z,26.27
2022-12-23T10:28:03.032Z,26.53
2022-12-23T10:34:49.971Z,24.23
2022-12-23T10:37:56.965Z,23.17
2022-12-23T10:41:11.350Z,26.03
2022-12-23T10:44:54.157Z,24.80
2022-12-23T10:48:13.879Z,33.97
2022-12-23T10:51:21.429Z,20.70
2022-12-23T10:54:28.132Z,22.00
2022-12-23T10:57:31.639Z,19.93
2022-12-23T11:00:38.231Z,20.70
2022-12-23T11:03:47.515Z,21.13
2022-12-23T11:07:18.383Z,19.10
2022-12-23T11:10:19.572Z,19.30
2022-12-23T11:13:33.790Z,16.33
2022-12-23T11:16:45.986Z,17.97
2022-12-23T11:20:06.751Z,17.13
2022-12-23T11:23:25.849Z,16.97
2022-12-23T11:26:29.059Z,17.30
2022-12-23T11:29:36.074Z,16.90
2022-12-23T11:32:40.059Z,15.47
2022-12-23T11:35:45.797Z,17.00
2022-12-23T11:38:51.622Z,16.83
2022-12-23T11:41:57.182Z,15.63
2022-12-23T11:45:01.561Z,14.03
2022-12-23T11:48:06.208Z,16.40
2022-12-23T11:51:10.767Z,15.10
2022-12-23T11:54:21.538Z,14.97
2022-12-23T11:57:33.395Z,15.40
2022-12-23T12:00:41.124Z,15.03
2022-12-23T12:03:49.536Z,15.37
2022-12-23T12:06:56.758Z,16.17
2022-12-23T12:10:02.192Z,14.60
2022-12-23T12:13:09.060Z,15.33
2022-12-23T12:16:32.956Z,15.67
2022-12-23T12:19:40.100Z,16.07
2022-12-23T12:22:49.309Z,20.97
2022-12-23T12:25:57.525Z,15.30
2022-12-23T12:29:07.877Z,14.57
2022-12-23T12:32:20.318Z,14.50
2022-12-23T12:35:32.108Z,16.40
2022-12-23T12:38:41.128Z,15.03
2022-12-23T12:41:52.683Z,13.83
2022-12-23T12:45:06.734Z,14.32
2022-12-23T12:48:29.277Z,14.68
2022-12-23T12:51:39.196Z,13.35
2022-12-23T12:54:50.897Z,14.20
2022-12-23T12:57:54.255Z,13.98
2022-12-23T13:01:12.931Z,14.85
2022-12-23T13:04:40.598Z,14.25
2022-12-23T13:07:53.275Z,13.40
2022-12-23T13:11:06.438Z,13.70
2022-12-23T13:14:21.215Z,13.90
2022-12-23T13:17:29.048Z,13.07
2022-12-23T13:20:37.625Z,12.63
2022-12-23T13:23:49.620Z,11.40
2022-12-23T13:27:06.986Z,13.63
2022-12-23T13:30:14.025Z,13.90
2022-12-23T13:33:29.674Z,12.17
2022-12-23T13:36:53.116Z,11.90
2022-12-23T13:40:04.521Z,11.27
2022-12-23T13:43:15.743Z,12.23
2022-12-23T13:46:26.955Z,11.17
2022-12-23T13:49:44.893Z,11.63
2022-12-23T13:53:03.003Z,16.37
2022-12-23T13:56:15.107Z,10.80
2022-12-23T13:59:19.655Z,11.93
2022-12-23T14:02:49.534Z,12.53
2022-12-23T14:05:54.310Z,10.70
2022-12-23T14:08:57.635Z,10.87
2022-12-23T14:12:17.593Z,10.83
2022-12-23T14:15:40.238Z,11.07
2022-12-23T14:19:10.073Z,10.87
2022-12-23T14:22:30.213Z,12.03
2022-12-23T14:25:56.417Z,10.80
2022-12-23T14:29:16.277Z,10.30
2022-12-23T14:32:25.249Z,10.93
2022-12-23T14:35:49.604Z,21.63
2022-12-23T14:39:28.236Z,8.73
2022-12-23T14:42:37.303Z,11.20
2022-12-23T14:45:44.469Z,13.90
2022-12-23T14:49:38.121Z,27.53
2022-12-23T14:52:49.697Z,11.33
2022-12-23T14:56:08.569Z,11.10
2022-12-23T14:59:19.873Z,8.80
2022-12-23T15:02:31.345Z,8.13
2022-12-23T15:05:39.263Z,8.23
2022-12-23T15:08:44.120Z,11.00
2022-12-23T15:11:47.486Z,9.10
2022-12-23T15:14:54.260Z,8.90
2022-12-23T15:18:04.250Z,10.07
2022-12-23T15:21:13.385Z,10.40
2022-12-23T15:24:18.672Z,12.50
2022-12-23T15:27:27.935Z,11.70
2022-12-23T15:30:37.534Z,11.13
2022-12-23T15:37:11.043Z,15.10
2022-12-23T15:40:26.465Z,12.20
2022-12-23T15:43:29.808Z,16.03
2022-12-23T15:46:33.410Z,12.90
2022-12-23T15:49:36.582Z,15.77
2022-12-23T15:52:42.514Z,15.90
2022-12-23T15:55:46.263Z,15.80
2022-12-23T15:58:49.705Z,17.13
2022-12-23T16:01:53.463Z,15.50
2022-12-23T16:05:00.393Z,16.00
2022-12-23T16:08:28.272Z,18.07
2022-12-23T16:11:42.625Z,14.87
2022-12-23T16:14:53.708Z,15.87
2022-12-23T16:18:15.368Z,15.43
2022-12-23T16:21:18.625Z,16.00
2022-12-23T16:24:23.299Z,19.50
2022-12-23T16:27:34.527Z,24.50
2022-12-23T16:30:41.710Z,28.90
2022-12-23T16:33:46.815Z,23.80
2022-12-23T16:36:50.174Z,21.47
2022-12-23T16:39:55.249Z,28.33
2022-12-23T16:42:58.738Z,27.10
2022-12-23T16:46:02.937Z,21.83
2022-12-23T16:49:10.964Z,23.17
2022-12-23T16:52:15.298Z,24.70
2022-12-23T16:55:21.478Z,18.23
2022-12-23T16:58:25.125Z,19.17
2022-12-23T17:01:31.646Z,18.10
2022-12-23T17:04:34.849Z,16.43
2022-12-23T17:07:45.253Z,16.13
2022-12-23T17:10:50.493Z,19.03
2022-12-23T17:13:59.628Z,17.67
2022-12-23T17:17:14.459Z,21.13
2022-12-23T17:20:18.986Z,17.73
2022-12-23T17:23:28.920Z,18.60
2022-12-23T17:26:33.511Z,18.23
2022-12-23T17:29:36.668Z,16.67
2022-12-23T17:32:39.898Z,17.67
2022-12-23T17:35:43.095Z,16.13
2022-12-23T17:38:46.323Z,17.43
2022-12-23T17:41:51.312Z,18.20
2022-12-23T17:44:54.570Z,21.50
2022-12-23T17:47:57.951Z,22.70
2022-12-23T17:51:01.170Z,22.13
2022-12-23T17:54:04.657Z,20.83
2022-12-23T17:57:20.408Z,18.00
2022-12-23T18:00:31.918Z,20.53
2022-12-23T18:03:37.250Z,23.40
2022-12-23T18:06:40.461Z,19.80
2022-12-23T18:09:43.667Z,17.93
2022-12-23T18:12:51.746Z,17.10
2022-12-23T18:15:54.937Z,19.87
2022-12-23T18:18:58.466Z,22.53
2022-12-23T18:22:01.627Z,18.80
2022-12-23T18:25:05.380Z,19.70
2022-12-23T18:28:12.112Z,19.83
2022-12-23T18:31:17.345Z,20.37
2022-12-23T18:34:20.953Z,21.00
2022-12-23T18:37:25.197Z,22.43
2022-12-23T18:40:32.956Z,20.60
2022-12-23T18:43:37.860Z,22.33
2022-12-23T18:46:41.074Z,18.37
2022-12-23T18:49:44.356Z,30.17
2022-12-23T18:52:47.709Z,21.90
2022-12-23T18:55:50.976Z,22.60
2022-12-23T18:58:55.681Z,20.00
2022-12-23T19:01:59.154Z,19.63
2022-12-23T19:05:02.724Z,19.13
2022-12-23T19:08:06.404Z,24.20
2022-12-23T19:11:14.871Z,18.60
2022-12-23T19:14:19.559Z,21.80
2022-12-23T19:17:22.804Z,20.80
2022-12-23T19:20:25.983Z,17.33
2022-12-23T19:23:29.307Z,24.07
2022-12-23T19:26:32.762Z,19.20
2022-12-23T19:29:37.297Z,17.10
2022-12-23T19:32:40.648Z,15.83
2022-12-23T19:35:44.379Z,18.93
2022-12-23T19:38:47.635Z,17.13
2022-12-23T19:41:50.936Z,18.90
2022-12-23T19:44:55.495Z,15.90
2022-12-23T19:47:58.845Z,15.27
2022-12-23T19:51:03.884Z,15.80
2022-12-23T19:54:07.321Z,16.40
2022-12-23T19:57:10.512Z,17.00
2022-12-23T20:00:16.797Z,17.33
2022-12-23T20:03:20.226Z,14.43
2022-12-23T20:06:25.603Z,17.50
2022-12-23T20:09:28.884Z,16.13
2022-12-23T20:12:32.079Z,57.30
2022-12-23T20:15:37.097Z,37.50
2022-12-23T20:18:40.893Z,20.00
2022-12-23T20:21:45.451Z,18.17
2022-12-23T20:24:48.643Z,15.90
2022-12-23T20:27:51.861Z,23.30
2022-12-23T20:31:09.849Z,20.50
2022-12-23T20:34:17.228Z,27.50
2022-12-23T20:37:20.473Z,27.30
2022-12-23T20:40:24.140Z,27.57
2022-12-23T20:43:27.318Z,28.77
2022-12-23T20:46:31.953Z,22.53
2022-12-23T20:49:35.349Z,23.73
2022-12-23T20:52:39.017Z,23.53
2022-12-23T20:55:42.204Z,21.47
2022-12-23T20:58:57.868Z,25.10
2022-12-23T21:02:02.665Z,21.07
2022-12-23T21:05:06.637Z,22.20
2022-12-23T21:08:09.846Z,22.67
2022-12-23T21:11:13.171Z,19.73
2022-12-23T21:14:16.729Z,21.10
2022-12-23T21:17:23.903Z,20.70
2022-12-23T21:20:27.285Z,22.67
2022-12-23T21:23:31.248Z,19.40
2022-12-23T21:26:35.992Z,21.17
2022-12-23T21:29:39.178Z,18.60
2022-12-23T21:32:43.773Z,17.73
2022-12-23T21:35:47.445Z,21.50
2022-12-23T21:38:51.089Z,17.00
2022-12-23T21:41:54.259Z,19.33
2022-12-23T21:44:57.404Z,19.67
2022-12-23T21:48:01.933Z,21.37
2022-12-23T21:51:07.210Z,21.00
2022-12-23T21:54:11.261Z,21.63
2022-12-23T21:57:14.618Z,18.90
2022-12-23T22:00:18.199Z,21.77
2022-12-23T22:03:22.799Z,22.57
2022-12-23T22:06:27.424Z,19.13
2022-12-23T22:09:32.673Z,23.10
2022-12-23T22:12:36.012Z,22.70
2022-12-23T22:15:42.011Z,27.00
2022-12-23T22:18:46.954Z,23.90
2022-12-23T22:21:50.087Z,18.27
2022-12-23T22:24:53.248Z,22.73
2022-12-23T22:27:56.426Z,25.00
2022-12-23T22:31:03.515Z,20.13
2022-12-23T22:34:09.629Z,17.80
2022-12-23T22:37:12.788Z,21.30
2022-12-23T22:40:16.110Z,25.73
2022-12-23T22:43:20.061Z,20.20
2022-12-23T22:46:24.536Z,19.27
2022-12-23T22:49:29.383Z,45.80
2022-12-23T22:52:32.532Z,32.60
2022-12-23T22:55:35.713Z,42.17
2022-12-23T22:58:38.994Z,24.80
2022-12-23T23:01:42.183Z,38.57
2022-12-23T23:04:46.746Z,33.27
2022-12-23T23:07:49.877Z,28.73
2022-12-23T23:10:53.602Z,23.90
2022-12-23T23:13:57.349Z,21.03
2022-12-23T23:17:00.686Z,18.97
2022-12-23T23:20:05.810Z,20.13
2022-12-23T23:23:08.993Z,21.10
2022-12-23T23:26:12.491Z,20.43
2022-12-23T23:29:15.692Z,19.90
2022-12-23T23:32:18.930Z,21.77
2022-12-23T23:35:23.575Z,18.77
2022-12-23T23:38:28.103Z,19.80
2022-12-23T23:41:31.284Z,23.43
2022-12-23T23:44:34.521Z,20.20
2022-12-23T23:47:37.739Z,19.73
2022-12-23T23:50:42.458Z,17.90
2022-12-23T23:53:45.648Z,18.07
2022-12-23T23:56:48.780Z,22.60
2022-12-23T23:59:51.943Z,18.10
